createdAt,value
2024-04-11T00:00:00.129Z,2.3
2024-04-11T00:05:00.132Z,2.2
2024-04-11T00:10:00.103Z,2.3
2024-04-11T00:15:00.247Z,2.3
2024-04-11T00:20:00.097Z,2.2
2024-04-11T00:25:00.083Z,2.2
2024-04-11T00:30:00.318Z,1.9
2024-04-11T00:35:00.077Z,1.8
2024-04-11T00:40:00.113Z,1.8
2024-04-11T00:45:00.132Z,2
2024-04-11T00:50:00.146Z,1.8
2024-04-11T00:55:00.072Z,1.9
2024-04-11T01:00:00.260Z,1.9
2024-04-11T01:05:00.092Z,2.1
2024-04-11T01:10:00.091Z,2
2024-04-11T01:15:00.234Z,1.9
2024-04-11T01:20:00.075Z,2.1
2024-04-11T01:25:00.101Z,1.7
2024-04-11T01:30:00.364Z,2
2024-04-11T01:35:00.086Z,1.8
2024-04-11T01:40:00.137Z,1.8
2024-04-11T01:45:00.167Z,1.8
2024-04-11T01:50:00.135Z,1.8
2024-04-11T01:55:00.080Z,1.7
2024-04-11T02:00:00.167Z,2.8
2024-04-11T02:05:00.103Z,1.8
2024-04-11T02:10:00.090Z,2
2024-04-11T02:15:00.109Z,2
2024-04-11T02:20:00.068Z,2
2024-04-11T02:25:00.098Z,1.8
2024-04-11T02:30:00.163Z,1.8
2024-04-11T02:35:00.071Z,2.3
2024-04-11T02:40:00.092Z,2
2024-04-11T02:45:00.214Z,1.9
2024-04-11T02:50:00.098Z,1.8
2024-04-11T02:55:00.072Z,1.7
2024-04-11T03:00:00.147Z,1.6
2024-04-11T03:05:00.147Z,2
2024-04-11T03:10:00.135Z,2.5
2024-04-11T03:15:00.115Z,1.8
2024-04-11T03:20:00.088Z,1.5
2024-04-11T03:25:00.108Z,1.6
2024-04-11T03:30:00.252Z,1.6
2024-04-11T03:35:00.094Z,1.6
2024-04-11T03:40:00.084Z,1.5
2024-04-11T03:45:00.108Z,1.4
2024-04-11T03:50:00.118Z,1.9
2024-04-11T03:55:00.130Z,1.8
2024-04-11T04:00:00.250Z,2.2
2024-04-11T04:05:00.106Z,1.8
2024-04-11T04:10:00.121Z,2
2024-04-11T04:15:00.107Z,2.3
2024-04-11T04:20:00.089Z,2
2024-04-11T04:25:00.149Z,1.8
2024-04-11T04:30:00.327Z,2.1
2024-04-11T04:35:00.077Z,2
2024-04-11T04:40:00.097Z,1.7
2024-04-11T04:45:00.161Z,1.8
2024-04-11T04:50:00.117Z,1.6
2024-04-11T04:55:00.082Z,1.7
2024-04-11T05:00:00.102Z,1.4
2024-04-11T05:05:00.121Z,1.5
2024-04-11T05:10:00.104Z,1.6
2024-04-11T05:15:00.121Z,1.7
2024-04-11T05:20:00.069Z,1.7
2024-04-11T05:25:00.097Z,1.4
2024-04-11T05:30:00.145Z,1.6
2024-04-11T05:35:00.083Z,1.7
2024-04-11T05:40:00.083Z,1.7
2024-04-11T05:45:00.079Z,2
2024-04-11T05:50:00.092Z,2.1
2024-04-11T05:55:00.076Z,2.1
2024-04-11T06:00:00.093Z,2.1
2024-04-11T06:05:00.070Z,1.8
2024-04-11T06:10:00.127Z,1.9
2024-04-11T06:15:00.159Z,1.9
2024-04-11T06:20:00.106Z,1.6
2024-04-11T06:25:00.077Z,1.6
2024-04-11T06:30:00.229Z,1.7
2024-04-11T06:35:00.093Z,1.6
2024-04-11T06:40:00.127Z,1.8
2024-04-11T06:45:00.094Z,1.7
2024-04-11T06:50:00.088Z,1.9
2024-04-11T06:55:00.085Z,1.9
2024-04-11T07:00:00.117Z,1.5
2024-04-11T07:05:00.068Z,2
2024-04-11T07:10:00.135Z,1.4
2024-04-11T07:15:00.195Z,1.4
2024-04-11T07:20:00.072Z,1.4
2024-04-11T07:25:00.073Z,1.7
2024-04-11T07:30:00.154Z,1.4
2024-04-11T07:35:00.079Z,1.3
2024-04-11T07:40:00.132Z,1.6
2024-04-11T07:45:00.152Z,1.5
2024-04-11T07:50:00.181Z,1.5
2024-04-11T07:55:00.074Z,1.6
2024-04-11T08:00:00.167Z,1.5
2024-04-11T08:05:00.083Z,1.2
2024-04-11T08:10:00.095Z,1.3
2024-04-11T08:15:00.134Z,1.2
2024-04-11T08:20:00.084Z,1
2024-04-11T08:25:00.087Z,1.1
2024-04-11T08:30:00.137Z,1
2024-04-11T08:35:00.090Z,1
2024-04-11T08:40:00.082Z,0.9
2024-04-11T08:45:00.118Z,1.1
2024-04-11T08:50:00.197Z,1.2
2024-04-11T08:55:00.088Z,1.2
2024-04-11T09:00:00.196Z,1.1
2024-04-11T09:05:04.370Z,1
2024-04-11T09:10:00.087Z,1.1
2024-04-11T09:15:00.080Z,1
2024-04-11T09:20:00.110Z,1
2024-04-11T09:25:00.066Z,0.9
2024-04-11T09:30:00.178Z,1
2024-04-11T09:35:00.082Z,1
2024-04-11T09:40:00.078Z,0.9
2024-04-11T09:45:00.125Z,1.1
2024-04-11T09:50:00.096Z,1.1
2024-04-11T09:55:00.078Z,1.1
2024-04-11T10:00:00.129Z,1.3
2024-04-11T10:05:00.088Z,1.2
2024-04-11T10:10:00.105Z,1.3
2024-04-11T10:15:00.081Z,1.2
2024-04-11T10:20:00.187Z,1.2
2024-04-11T10:25:00.127Z,1.3
2024-04-11T10:30:01.789Z,1.1
2024-04-11T10:35:00.147Z,1.2
2024-04-11T10:40:00.075Z,1.1
2024-04-11T10:45:00.082Z,1.3
2024-04-11T10:50:00.084Z,1.5
2024-04-11T10:55:00.070Z,1.2
2024-04-11T11:00:00.079Z,1.1
2024-04-11T11:05:00.081Z,1.1
2024-04-11T11:10:00.084Z,1.3
2024-04-11T11:15:00.087Z,1.3
2024-04-11T11:20:00.116Z,1.1
2024-04-11T11:25:00.103Z,1.2
2024-04-11T11:30:00.262Z,1.3
2024-04-11T11:35:00.096Z,1.3
2024-04-11T11:40:00.083Z,1.1
2024-04-11T11:45:00.411Z,1
2024-04-11T11:50:00.125Z,1
2024-04-11T11:55:00.101Z,1.2
2024-04-11T12:00:00.113Z,1.3
2024-04-11T12:05:00.109Z,0.9
2024-04-11T12:10:00.095Z,1.1
2024-04-11T12:15:00.174Z,1.5
2024-04-11T12:20:00.076Z,0.9
2024-04-11T12:25:00.070Z,1.2
2024-04-11T12:30:00.164Z,1.1
2024-04-11T12:35:00.079Z,1.1
2024-04-11T12:40:00.069Z,1
2024-04-11T12:45:00.094Z,0.8
2024-04-11T12:50:00.127Z,0.9
2024-04-11T12:55:00.384Z,1
2024-04-11T13:00:00.219Z,1
2024-04-11T13:05:00.115Z,0.9
2024-04-11T13:10:00.186Z,1
2024-04-11T13:15:00.202Z,0.8
2024-04-11T13:20:00.129Z,0.8
2024-04-11T13:25:00.067Z,1
2024-04-11T13:30:00.134Z,0.9
2024-04-11T13:35:00.078Z,1.2
2024-04-11T13:40:00.076Z,1.1
2024-04-11T13:45:00.156Z,0.9
2024-04-11T13:50:00.088Z,1
2024-04-11T13:55:00.074Z,1
2024-04-11T14:00:00.214Z,0.9
2024-04-11T14:05:00.374Z,0.9
2024-04-11T14:10:00.092Z,1.3
2024-04-11T14:15:00.085Z,1.1
2024-04-11T14:20:00.067Z,1.1
2024-04-11T14:25:00.285Z,1
2024-04-11T14:30:00.121Z,1
2024-04-11T14:35:00.076Z,1
2024-04-11T14:40:00.096Z,1
2024-04-11T14:45:00.111Z,1.1
2024-04-11T14:50:00.090Z,1.2
2024-04-11T14:55:00.099Z,1.4
2024-04-11T15:00:00.289Z,1.1
2024-04-11T15:05:00.087Z,1.6
2024-04-11T15:10:00.088Z,0.9
2024-04-11T15:15:00.136Z,1.1
2024-04-11T15:20:00.126Z,1
2024-04-11T15:25:00.086Z,1
2024-04-11T15:30:00.169Z,0.9
2024-04-11T15:35:00.138Z,1.1
2024-04-11T15:40:00.077Z,1.1
2024-04-11T15:45:00.199Z,1.1
2024-04-11T15:50:00.113Z,1.1
2024-04-11T15:55:00.085Z,1.1
2024-04-11T16:00:00.161Z,1
2024-04-11T16:05:00.214Z,0.9
2024-04-11T16:10:00.151Z,1
2024-04-11T16:15:00.162Z,1.3
2024-04-11T16:20:00.102Z,1.1
2024-04-11T16:25:00.080Z,1
2024-04-11T16:30:00.153Z,1.1
2024-04-11T16:35:00.222Z,1.1
2024-04-11T16:40:00.090Z,1.4
2024-04-11T16:45:00.199Z,1.1
2024-04-11T16:50:00.092Z,0.9
2024-04-11T16:55:00.085Z,1.2
2024-04-11T17:00:00.220Z,1.1
2024-04-11T17:05:00.080Z,1.2
2024-04-11T17:10:00.137Z,1.2
2024-04-11T17:15:00.099Z,1.3
2024-04-11T17:20:00.082Z,0.9
2024-04-11T17:25:00.085Z,0.8
2024-04-11T17:30:00.122Z,0.8
2024-04-11T17:35:00.073Z,1
2024-04-11T17:40:00.143Z,1.1
2024-04-11T17:45:00.087Z,0.9
2024-04-11T17:50:00.091Z,0.9
2024-04-11T17:55:00.072Z,1.2
2024-04-11T18:00:00.143Z,0.9
2024-04-11T18:05:00.082Z,0.9
2024-04-11T18:10:00.203Z,1.1
2024-04-11T18:15:00.193Z,1.3
2024-04-11T18:20:00.075Z,0.9
2024-04-11T18:25:00.104Z,1.1
2024-04-11T18:30:00.143Z,1.1
2024-04-11T18:35:00.087Z,1.6
2024-04-11T18:40:00.205Z,2
2024-04-11T18:45:00.128Z,1.6
2024-04-11T18:50:00.106Z,1.3
2024-04-11T18:55:00.100Z,1.2
2024-04-11T19:00:00.265Z,0.9
2024-04-11T19:05:00.088Z,0.8
2024-04-11T19:10:00.939Z,0.9
2024-04-11T19:15:00.499Z,0.9
2024-04-11T19:20:00.092Z,0.9
2024-04-11T19:25:00.459Z,1
2024-04-11T19:30:00.888Z,1.1
2024-04-11T19:35:00.071Z,1
2024-04-11T19:40:00.106Z,1.2
2024-04-11T19:45:00.097Z,1.2
2024-04-11T19:50:00.097Z,1.6
2024-04-11T19:55:00.080Z,1.7
2024-04-11T20:00:00.162Z,1.6
2024-04-11T20:05:01.803Z,1.5
2024-04-11T20:10:00.108Z,1.6
2024-04-11T20:15:00.090Z,2.3
2024-04-11T20:20:00.115Z,2.5
2024-04-11T20:25:00.076Z,2.4
2024-04-11T20:30:00.149Z,1.7
2024-04-11T20:35:00.094Z,1.5
2024-04-11T20:40:00.077Z,1.6
2024-04-11T20:45:00.165Z,1.8
2024-04-11T20:50:00.078Z,2
2024-04-11T20:55:00.089Z,1.8
2024-04-11T21:00:00.244Z,1.7
2024-04-11T21:05:00.076Z,2
2024-04-11T21:10:00.107Z,2
2024-04-11T21:15:00.101Z,2.5
2024-04-11T21:20:00.080Z,2.3
2024-04-11T21:25:00.075Z,2.2
2024-04-11T21:30:00.195Z,2
2024-04-11T21:35:00.075Z,2.1
2024-04-11T21:40:00.088Z,2.1
2024-04-11T21:45:00.153Z,2
2024-04-11T21:50:00.124Z,1.8
2024-04-11T21:55:00.070Z,2.1
2024-04-11T22:00:00.158Z,1.4
2024-04-11T22:05:00.105Z,1.6
2024-04-11T22:10:00.104Z,1.6
2024-04-11T22:15:00.360Z,1.4
2024-04-11T22:20:00.081Z,1.5
2024-04-11T22:25:00.081Z,1.3
2024-04-11T22:30:00.339Z,1.4
2024-04-11T22:35:00.073Z,1.7
2024-04-11T22:40:00.123Z,1.6
2024-04-11T22:45:00.106Z,1.6
2024-04-11T22:50:00.098Z,1.5
2024-04-11T22:55:00.088Z,1.7
2024-04-11T23:00:00.116Z,1.5
2024-04-11T23:05:00.064Z,1.5
2024-04-11T23:10:00.112Z,1.4
2024-04-11T23:15:00.117Z,1.6
2024-04-11T23:20:00.084Z,1.7
2024-04-11T23:25:00.094Z,1.9
2024-04-11T23:30:00.131Z,1.5
2024-04-11T23:35:00.089Z,1.5
2024-04-11T23:40:00.092Z,1.8
2024-04-11T23:45:00.106Z,1.4
2024-04-11T23:50:00.115Z,1.7
2024-04-11T23:55:00.081Z,1.8
